Valhermoso Springs, Alabama
Current Conditions -  °F | °C
As of 10:53 PM on Tuesday 25 Nov 2014 (Local Time) from KHSV Reporting Station
Overcast Overcast  
Wind Chill: 42°   Ceiling: 11000
Heat Index: 45°   Visibility: 10mi
Dew Point: 30°   Wind: 6mph
Humidity: 56%   Direction: 330°NNW
Pressure: 30.13"   Gusts: NA
Location:  34.5°N, 86.69°W
Report Text: KHSV 260453Z 33005KT 10SM OVC110 07/M01 A3013 RMK AO2 SLP204 T00721011
Loading
Personal Weather Stations






























Interactive Weather Map New forecast layout! Learn more

10-Day Weather Forecast

Advertisements
Track Severe Weather on mobile